首页
METAR-TAF:

METAR-TAF

机场 :

新伊比利亚, 路易斯安那州, 美国

纬度: 30-01-44N, 经度: 091-53-04W, 海拔: 7米

当前天气观测

该预报发布于17分钟前的11:53 UTC
风速4节,风向西北
温度 1°C
湿度 86%
气压 1029 hPa
能見度: 16.1公里
天空无云

METAR: KARA 271153Z 32004KT 10SM CLR 01/M01 A3040 RMK AO2 SLP293 T00111006 10056 20011 53007

时间: 06:10 (12:10 UTC)

预报

该预报发布于48分钟前的11:22 UTC
预报有效从27日的 12点(UTC)到 28日的 12点(UTC)
风速5节,风向多变
能見度: 10公里
天空无云

TAF: KARA 271122Z 2712/2812 VRB05KT P6SM SKC

超过4000个机场的气象观测和天气预报(METAR&TAF报告)。

可查询的气象台以黄色和红色小点在地图上表示。

将鼠标移到小点上方,可查看气象台名称。

然后点击查看天气观测和预报。

如需切换地图:点击带黑十字的绿色按钮放大地图;点击带横线的绿色按钮缩小地图;或者点击绿色箭头查看邻近地区的地图。


METAR-TAF: